Terminal Aerodrome Forecast
Issued by NWS Jackson, MS

Home | Current Version | Previous Version | Text Only | Print | Product List | Glossary On
Versions: 1 2 3 4 5 6 7 8 9 10 11 12 13
000
FTUS44 KMEG 260521
TAFTUP
TAF
KTUP 260521Z 2606/2706 20005KT P6SM SCT250
     FM261300 20010G17KT P6SM BKN250
     FM261700 20014G22KT P6SM BKN250
     FM262300 21010KT P6SM FEW040 BKN250
     FM270500 21006KT P6SM SCT040 BKN150=

USA.gov is the U.S. government's official web portal to all federal, state and local government web resources and services.